createdAt,value
2022-09-28T00:03:59.891Z,80.95
2022-09-28T00:09:02.356Z,81.95
2022-09-28T00:14:03.773Z,81.64
2022-09-28T00:19:05.212Z,81.83
2022-09-28T00:24:15.202Z,81.78
2022-09-28T00:29:27.150Z,81.76
2022-09-28T00:34:28.327Z,81.45
2022-09-28T00:39:31.652Z,81.28
2022-09-28T00:44:40.381Z,81.21
2022-09-28T00:49:44.987Z,80.37
2022-09-28T00:54:48.852Z,81.03
2022-09-28T00:59:50.509Z,81.26
2022-09-28T01:04:52.258Z,81.66
2022-09-28T01:09:56.391Z,80.98
2022-09-28T01:14:59.246Z,81.56
2022-09-28T01:20:14.062Z,81.15
2022-09-28T01:25:26.059Z,81.47
2022-09-28T01:30:28.195Z,81.94
2022-09-28T01:35:35.590Z,82.93
2022-09-28T01:40:38.478Z,83.29
2022-09-28T01:45:45.715Z,84.35
2022-09-28T01:50:51.628Z,83.86
2022-09-28T01:55:58.798Z,83.58
2022-09-28T02:01:06.163Z,85.25
2022-09-28T02:06:14.392Z,85.39
2022-09-28T02:11:18.051Z,85.00
2022-09-28T02:16:27.135Z,84.33
2022-09-28T02:21:32.503Z,85.05
2022-09-28T02:26:39.034Z,86.30
2022-09-28T02:31:41.372Z,85.68
2022-09-28T02:36:44.939Z,85.56
2022-09-28T02:42:02.835Z,85.70
2022-09-28T02:47:16.553Z,84.80
2022-09-28T02:52:42.967Z,83.93
2022-09-28T02:57:58.316Z,85.17
2022-09-28T03:03:10.409Z,84.41
2022-09-28T03:08:21.429Z,84.39
2022-09-28T03:13:22.678Z,84.37
2022-09-28T03:18:24.827Z,84.98
2022-09-28T03:23:25.706Z,85.00
2022-09-28T03:28:28.209Z,85.92
2022-09-28T03:33:30.839Z,86.43
2022-09-28T03:38:31.649Z,86.96
2022-09-28T03:43:32.905Z,86.97
2022-09-28T03:48:37.366Z,86.07
2022-09-28T03:53:38.207Z,86.62
2022-09-28T03:58:39.799Z,86.42
2022-09-28T04:03:41.815Z,86.47
2022-09-28T04:08:43.094Z,87.12
2022-09-28T04:13:44.116Z,90.56
2022-09-28T04:18:48.889Z,88.64
2022-09-28T04:24:10.698Z,88.24
2022-09-28T04:29:17.821Z,87.87
2022-09-28T04:34:29.796Z,87.40
2022-09-28T04:39:32.638Z,85.78
2022-09-28T04:44:33.393Z,87.05
2022-09-28T04:49:41.442Z,87.39
2022-09-28T04:54:44.830Z,88.20
2022-09-28T04:59:45.715Z,88.45
2022-09-28T05:04:47.883Z,88.46
2022-09-28T05:10:07.146Z,89.18
2022-09-28T05:15:09.484Z,88.49
2022-09-28T05:20:11.869Z,88.55
2022-09-28T05:25:12.768Z,88.07
2022-09-28T05:30:35.952Z,87.76
2022-09-28T05:36:00.905Z,87.05
2022-09-28T05:41:06.374Z,87.10
2022-09-28T05:46:08.211Z,85.54
2022-09-28T05:51:13.288Z,85.00
2022-09-28T05:56:13.924Z,84.76
2022-09-28T06:01:18.092Z,84.63
2022-09-28T06:06:21.060Z,83.34
2022-09-28T06:11:25.082Z,83.26
2022-09-28T06:16:26.684Z,83.39
2022-09-28T06:21:28.847Z,82.66
2022-09-28T06:26:29.462Z,82.42
2022-09-28T06:31:31.367Z,82.42
2022-09-28T06:36:34.557Z,82.37
2022-09-28T06:41:36.322Z,81.67
2022-09-28T06:46:47.199Z,80.69
2022-09-28T06:51:52.357Z,79.78
2022-09-28T06:56:56.115Z,80.39
2022-09-28T07:01:57.115Z,79.73
2022-09-28T07:07:29.564Z,80.03
2022-09-28T07:12:53.315Z,78.59
2022-09-28T07:18:04.246Z,79.01
2022-09-28T07:23:18.344Z,78.81
2022-09-28T07:28:44.811Z,78.95
2022-09-28T07:34:05.036Z,78.51
2022-09-28T07:39:28.679Z,79.72
2022-09-28T07:44:29.828Z,80.47
2022-09-28T07:49:32.312Z,80.00
2022-09-28T07:54:52.095Z,80.54
2022-09-28T08:00:18.955Z,81.10
2022-09-28T08:05:21.754Z,82.35
2022-09-28T08:10:24.000Z,82.23
2022-09-28T08:15:51.818Z,84.27
2022-09-28T08:21:25.438Z,86.11
2022-09-28T08:26:29.044Z,86.22
2022-09-28T08:31:31.111Z,88.85
2022-09-28T08:36:45.661Z,91.72
2022-09-28T08:42:23.655Z,92.42
2022-09-28T08:48:10.864Z,92.04
2022-09-28T08:53:53.050Z,92.09
2022-09-28T08:59:01.966Z,91.13
2022-09-28T09:04:04.314Z,90.85
2022-09-28T09:09:14.821Z,91.73
2022-09-28T09:14:38.960Z,93.35
2022-09-28T09:19:52.369Z,92.14
2022-09-28T09:25:20.629Z,93.65
2022-09-28T09:30:30.019Z,92.60
2022-09-28T09:36:00.376Z,94.03
2022-09-28T09:41:40.552Z,94.01
2022-09-28T09:46:59.697Z,95.25
2022-09-28T09:52:16.180Z,95.39
2022-09-28T09:57:21.333Z,94.93
2022-09-28T10:02:36.101Z,95.39
2022-09-28T10:07:51.939Z,96.77
2022-09-28T10:12:53.660Z,97.30
2022-09-28T10:17:58.168Z,97.61
2022-09-28T10:23:31.470Z,95.64
2022-09-28T10:28:40.636Z,94.19
2022-09-28T10:33:43.122Z,94.76
2022-09-28T10:38:48.807Z,94.29
2022-09-28T10:44:11.050Z,93.17
2022-09-28T10:49:23.135Z,92.82
2022-09-28T10:54:31.099Z,94.40
2022-09-28T10:59:39.877Z,93.94
2022-09-28T11:05:00.139Z,92.57
2022-09-28T11:10:05.708Z,92.20
2022-09-28T11:15:18.216Z,93.08
2022-09-28T11:20:34.087Z,93.21
2022-09-28T11:25:37.164Z,93.67
2022-09-28T11:30:45.888Z,96.71
2022-09-28T11:36:38.198Z,96.98
2022-09-28T11:42:00.138Z,96.61
2022-09-28T11:47:16.333Z,94.72
2022-09-28T11:52:23.742Z,92.12
2022-09-28T11:57:29.541Z,90.85
2022-09-28T12:02:35.793Z,88.55
2022-09-28T12:07:47.593Z,81.97
2022-09-28T12:13:14.877Z,80.64
2022-09-28T12:18:21.933Z,80.06
2022-09-28T12:23:30.082Z,80.31
2022-09-28T12:28:35.994Z,79.99
2022-09-28T12:33:38.994Z,78.88
2022-09-28T12:39:14.868Z,79.53
2022-09-28T12:44:40.358Z,78.38
2022-09-28T12:55:35.262Z,77.61
2022-09-28T13:00:47.841Z,76.40
2022-09-28T13:06:22.941Z,75.70
2022-09-28T13:11:33.581Z,79.50
2022-09-28T13:16:43.800Z,81.24
2022-09-28T13:21:53.577Z,81.19
2022-09-28T13:27:00.425Z,78.50
2022-09-28T13:32:03.238Z,77.61
2022-09-28T13:37:20.905Z,74.89
2022-09-28T13:42:37.716Z,76.80
2022-09-28T13:47:53.850Z,76.41
2022-09-28T13:53:08.780Z,79.48
2022-09-28T13:58:21.693Z,79.77
2022-09-28T14:03:42.207Z,82.90
2022-09-28T14:08:46.095Z,80.83
2022-09-28T14:14:25.031Z,81.51
2022-09-28T14:19:31.649Z,81.97
2022-09-28T14:24:45.990Z,79.53
2022-09-28T14:29:51.899Z,79.89
2022-09-28T14:35:02.310Z,79.33
2022-09-28T14:40:28.361Z,82.57
2022-09-28T14:45:38.567Z,87.14
2022-09-28T14:50:39.623Z,85.68
2022-09-28T14:55:49.895Z,84.48
2022-09-28T15:00:57.508Z,81.26
2022-09-28T15:05:58.636Z,82.08
2022-09-28T15:11:03.196Z,81.31
2022-09-28T15:16:11.116Z,81.22
2022-09-28T15:21:19.086Z,79.12
2022-09-28T15:26:24.135Z,78.33
2022-09-28T15:31:29.097Z,77.66
2022-09-28T15:36:31.688Z,76.07
2022-09-28T15:41:33.000Z,74.97
2022-09-28T15:46:37.195Z,75.53
2022-09-28T15:51:52.247Z,77.27
2022-09-28T15:56:56.921Z,75.91
2022-09-28T16:02:15.985Z,75.89
2022-09-28T16:07:34.541Z,75.33
2022-09-28T16:12:46.279Z,77.01
2022-09-28T16:17:53.222Z,76.68
2022-09-28T16:22:54.506Z,76.21
2022-09-28T16:27:56.515Z,76.46
2022-09-28T16:33:01.381Z,77.64
2022-09-28T16:38:11.860Z,76.57
2022-09-28T16:43:24.892Z,76.59
2022-09-28T16:48:29.240Z,80.46
2022-09-28T16:53:47.655Z,77.96
2022-09-28T16:58:50.343Z,79.83
2022-09-28T17:03:52.606Z,81.93
2022-09-28T17:08:56.585Z,86.80
2022-09-28T17:13:58.927Z,85.41
2022-09-28T17:19:03.019Z,83.68
2022-09-28T17:24:05.035Z,83.76
2022-09-28T17:29:08.714Z,85.40
2022-09-28T17:34:11.874Z,84.70
2022-09-28T17:39:13.555Z,86.03
2022-09-28T17:44:16.248Z,87.59
2022-09-28T17:49:19.206Z,87.99
2022-09-28T17:54:21.289Z,88.31
2022-09-28T17:59:22.098Z,88.67
2022-09-28T18:04:50.121Z,89.24
2022-09-28T18:09:45.035Z,90.20
2022-09-28T18:14:47.109Z,90.67
2022-09-28T18:19:49.533Z,92.37
2022-09-28T18:24:51.014Z,93.04
2022-09-28T18:29:52.082Z,93.37
2022-09-28T18:34:54.209Z,94.50
2022-09-28T18:39:54.955Z,95.34
2022-09-28T18:44:58.307Z,96.11
2022-09-28T18:50:00.487Z,96.52
2022-09-28T18:55:01.232Z,96.54
2022-09-28T19:00:02.972Z,95.47
2022-09-28T19:05:08.166Z,95.52
2022-09-28T19:10:09.814Z,96.44
2022-09-28T19:15:10.844Z,96.89
2022-09-28T19:20:12.995Z,97.59
2022-09-28T19:25:15.908Z,97.66
2022-09-28T19:30:16.754Z,98.66
2022-09-28T19:35:18.888Z,98.54
2022-09-28T19:40:19.763Z,97.93
2022-09-28T19:45:20.589Z,97.54
2022-09-28T19:50:23.113Z,97.21
2022-09-28T19:55:25.046Z,97.36
2022-09-28T20:00:25.904Z,98.25
2022-09-28T20:05:28.035Z,97.84
2022-09-28T20:10:28.809Z,98.34
2022-09-28T20:15:29.944Z,98.84
2022-09-28T20:20:32.043Z,99.24
2022-09-28T20:25:32.771Z,99.05
2022-09-28T20:30:34.016Z,99.85
2022-09-28T20:35:36.495Z,99.67
2022-09-28T20:40:37.597Z,99.54
2022-09-28T20:45:38.393Z,99.91
2022-09-28T20:50:40.635Z,99.60
2022-09-28T20:55:41.386Z,99.73
2022-09-28T21:00:42.132Z,99.78
2022-09-28T21:05:44.204Z,100.00
2022-09-28T21:10:45.575Z,100.00
2022-09-28T21:15:46.356Z,100.00
2022-09-28T21:20:49.189Z,100.00
2022-09-28T21:25:49.972Z,100.00
2022-09-28T21:30:52.797Z,100.00
2022-09-28T21:35:55.167Z,100.00
2022-09-28T21:40:57.154Z,100.00
2022-09-28T21:45:58.343Z,100.00
2022-09-28T21:51:02.872Z,100.00
2022-09-28T21:56:05.656Z,100.00
2022-09-28T22:01:09.082Z,100.00
2022-09-28T22:06:12.144Z,100.00
2022-09-28T22:11:14.745Z,100.00
2022-09-28T22:16:17.264Z,100.00
2022-09-28T22:21:21.519Z,100.00
2022-09-28T22:26:26.011Z,100.00
2022-09-28T22:31:29.173Z,100.00
2022-09-28T22:36:31.596Z,100.00
2022-09-28T22:41:32.829Z,100.00
2022-09-28T22:46:33.716Z,100.00
2022-09-28T22:51:36.032Z,100.00
2022-09-28T22:56:36.803Z,100.00
2022-09-28T23:01:37.606Z,100.00
2022-09-28T23:06:39.795Z,100.00
2022-09-28T23:11:40.518Z,100.00
2022-09-28T23:16:41.285Z,100.00
2022-09-28T23:21:43.420Z,100.00
2022-09-28T23:26:44.149Z,100.00
2022-09-28T23:31:45.452Z,100.00
2022-09-28T23:36:48.054Z,100.00
2022-09-28T23:41:48.797Z,100.00
2022-09-28T23:46:51.323Z,100.00
2022-09-28T23:51:53.832Z,100.00
2022-09-28T23:56:54.569Z,100.00
